Time;durP1;ratioP1;P1;durP2;ratioP2;P2;SDS_P1;SDS_P2;PMS_P1;PMS_P2;Temp;Humidity;BMP_temperature;BMP_pressure;BME280_temperature;BME280_humidity;BME280_pressure;Samples;Min_cycle;Max_cycle;Signal;HPM_P1;HPM_P2
2023/02/04 00:01:50;;;;;;;1.60;0.80;;;10.80;99.90;;;;;;6220606;23;20060;-80
2023/02/04 00:04:15;;;;;;;1.17;0.75;;;10.90;99.90;;;;;;6219634;23;20458;-80
2023/02/04 00:06:41;;;;;;;1.50;0.80;;;10.90;99.90;;;;;;6222925;23;20322;-80
2023/02/04 00:09:07;;;;;;;1.35;0.60;;;10.90;99.90;;;;;;6220881;23;20047;-81
2023/02/04 00:11:33;;;;;;;1.27;0.70;;;10.90;99.90;;;;;;6219723;23;20057;-80
2023/02/04 00:13:59;;;;;;;1.05;0.70;;;10.90;99.90;;;;;;6220613;23;20311;-80
2023/02/04 00:16:24;;;;;;;1.00;0.65;;;10.90;99.90;;;;;;6220134;23;20450;-81
2023/02/04 00:18:50;;;;;;;1.02;0.52;;;10.90;99.90;;;;;;6223107;23;20042;-81
2023/02/04 00:21:16;;;;;;;2.70;1.00;;;10.90;99.90;;;;;;6222625;23;20418;-80
2023/02/04 00:23:42;;;;;;;1.75;0.80;;;10.90;99.90;;;;;;6222894;23;20007;-81
2023/02/04 00:26:07;;;;;;;1.15;0.63;;;11.00;99.90;;;;;;6223276;23;20012;-81
2023/02/04 00:28:33;;;;;;;1.45;0.77;;;11.00;99.90;;;;;;6219979;23;20095;-80
2023/02/04 00:30:59;;;;;;;1.15;0.73;;;10.90;99.90;;;;;;6221183;23;20016;-80
2023/02/04 00:33:25;;;;;;;1.13;0.73;;;10.90;99.90;;;;;;6219249;23;20004;-81
2023/02/04 00:35:51;;;;;;;0.70;0.60;;;10.90;99.90;;;;;;6221140;23;20033;-80
2023/02/04 00:38:16;;;;;;;1.17;0.85;;;10.90;99.90;;;;;;6221617;23;19997;-80
2023/02/04 00:40:42;;;;;;;0.65;0.50;;;10.90;99.90;;;;;;6220847;23;20000;-80
2023/02/04 00:43:08;;;;;;;1.38;0.80;;;11.00;99.90;;;;;;6218809;23;20012;-79
2023/02/04 00:45:34;;;;;;;1.40;0.80;;;10.90;99.90;;;;;;6220348;23;20054;-80
2023/02/04 00:48:00;;;;;;;2.10;0.73;;;10.90;99.90;;;;;;6218569;23;20020;-82
2023/02/04 00:50:25;;;;;;;1.35;0.63;;;10.90;99.90;;;;;;6221844;23;19996;-82
2023/02/04 00:52:51;;;;;;;1.83;0.80;;;10.80;99.90;;;;;;6218947;23;20000;-80
2023/02/04 00:55:17;;;;;;;1.35;0.70;;;10.80;99.90;;;;;;6219910;23;19997;-80
2023/02/04 00:57:45;;;;;;;0.80;0.50;;;10.80;99.90;;;;;;6220091;23;20063;-81
2023/02/04 01:00:12;;;;;;;0.65;0.50;;;10.80;99.90;;;;;;6218497;23;20176;-80
2023/02/04 01:02:39;;;;;;;0.95;0.60;;;10.80;99.90;;;;;;6219950;23;20004;-79
2023/02/04 01:05:06;;;;;;;0.43;0.40;;;10.80;99.90;;;;;;6218911;23;20076;-80
2023/02/04 01:07:31;;;;;;;2.47;0.50;;;10.80;99.90;;;;;;6219883;23;20009;-80
2023/02/04 01:09:57;;;;;;;1.13;0.50;;;10.80;99.90;;;;;;6219850;23;20005;-80
2023/02/04 01:12:24;;;;;;;0.90;0.45;;;10.80;99.90;;;;;;6218534;23;20438;-79
2023/02/04 01:14:50;;;;;;;0.90;0.50;;;10.80;99.90;;;;;;6219030;23;20012;-80
2023/02/04 01:17:17;;;;;;;1.35;0.63;;;10.80;99.90;;;;;;6220240;23;20004;-80
2023/02/04 01:19:42;;;;;;;1.00;0.60;;;10.70;99.90;;;;;;6218974;23;20386;-80
2023/02/04 01:22:08;;;;;;;1.15;0.60;;;10.60;99.90;;;;;;6219181;23;20043;-80
2023/02/04 01:24:34;;;;;;;1.08;0.63;;;10.60;99.90;;;;;;6218835;23;20008;-80
2023/02/04 01:27:00;;;;;;;1.60;0.77;;;10.60;99.90;;;;;;6218578;23;20043;-80
2023/02/04 01:29:25;;;;;;;1.00;0.68;;;10.60;99.90;;;;;;6220569;23;20003;-79
2023/02/04 01:31:51;;;;;;;1.13;0.68;;;10.60;99.90;;;;;;6218933;23;20051;-80
2023/02/04 01:34:17;;;;;;;1.45;0.63;;;10.50;99.90;;;;;;6220569;23;19997;-80
2023/02/04 01:36:42;;;;;;;0.57;0.50;;;10.50;99.90;;;;;;6220444;23;20001;-80
2023/02/04 01:39:08;;;;;;;1.40;0.65;;;10.60;99.90;;;;;;6219024;23;20004;-80
2023/02/04 01:41:33;;;;;;;2.03;0.82;;;10.50;99.90;;;;;;6220153;23;20398;-80
2023/02/04 01:43:59;;;;;;;1.58;0.60;;;10.60;99.90;;;;;;6220485;23;20009;-80
2023/02/04 01:46:25;;;;;;;0.88;0.57;;;10.60;99.90;;;;;;6220455;23;20012;-80
2023/02/04 01:48:51;;;;;;;0.82;0.55;;;10.60;99.90;;;;;;6219013;23;20004;-80
2023/02/04 01:51:25;;;;;;;0.95;0.60;;;10.60;99.90;;;;;;6220077;23;20003;-80
2023/02/04 01:53:51;;;;;;;0.80;0.45;;;10.60;99.90;;;;;;6218915;23;20005;-80
2023/02/04 01:56:19;;;;;;;0.75;0.43;;;10.60;99.90;;;;;;6220026;23;20014;-80
2023/02/04 01:58:46;;;;;;;0.70;0.60;;;10.60;99.90;;;;;;6220378;23;20315;-80
2023/02/04 02:01:14;;;;;;;1.27;0.50;;;10.60;99.90;;;;;;6220187;23;20016;-80
2023/02/04 02:03:40;;;;;;;1.73;0.63;;;10.70;99.90;;;;;;6220143;23;20074;-80
2023/02/04 02:06:08;;;;;;;1.05;0.52;;;10.70;99.90;;;;;;6220051;23;20436;-80
2023/02/04 02:08:35;;;;;;;1.02;0.52;;;10.70;99.90;;;;;;6220260;23;20437;-80
2023/02/04 02:11:01;;;;;;;1.00;0.57;;;10.70;99.90;;;;;;6219928;23;20001;-80
2023/02/04 02:13:27;;;;;;;1.80;0.40;;;10.70;99.90;;;;;;6222126;23;20068;-80
2023/02/04 02:15:53;;;;;;;1.98;0.63;;;10.70;99.90;;;;;;6222013;23;20330;-80
2023/02/04 02:18:19;;;;;;;1.23;0.60;;;10.60;99.90;;;;;;6220761;23;20009;-80
2023/02/04 02:20:45;;;;;;;3.55;0.60;;;10.50;99.90;;;;;;6220691;23;20342;-80
2023/02/04 02:23:20;;;;;;;0.82;0.50;;;10.60;99.90;;;;;;6222010;23;19997;-81
2023/02/04 02:25:46;;;;;;;0.98;0.52;;;10.70;99.90;;;;;;6220113;23;20024;-80
2023/02/04 02:28:15;;;;;;;0.50;0.40;;;10.60;99.90;;;;;;6220762;23;20005;-80
2023/02/04 02:30:44;;;;;;;0.98;0.40;;;10.70;99.90;;;;;;6221807;23;20068;-80
2023/02/04 02:33:14;;;;;;;0.77;0.55;;;10.60;99.90;;;;;;6220560;23;20001;-80
2023/02/04 02:35:43;;;;;;;0.95;0.57;;;10.60;99.90;;;;;;6220451;23;20004;-80
2023/02/04 02:38:11;;;;;;;1.08;0.45;;;10.60;99.90;;;;;;6220403;23;20087;-80
2023/02/04 02:40:38;;;;;;;1.08;0.40;;;10.60;99.90;;;;;;6221792;23;20434;-80
2023/02/04 02:43:04;;;;;;;1.38;0.50;;;10.60;99.90;;;;;;6220628;23;20453;-80
2023/02/04 02:45:31;;;;;;;0.88;0.52;;;10.60;99.90;;;;;;6221961;23;20028;-80
2023/02/04 02:47:59;;;;;;;1.00;0.40;;;10.60;99.90;;;;;;6220271;23;20004;-80
2023/02/04 02:50:27;;;;;;;0.93;0.57;;;10.60;99.90;;;;;;6221543;23;19997;-80
2023/02/04 02:52:53;;;;;;;0.82;0.50;;;10.60;99.90;;;;;;6220277;23;20004;-80
2023/02/04 02:55:22;;;;;;;1.60;0.52;;;10.60;99.90;;;;;;6220139;23;20007;-80
2023/02/04 02:57:49;;;;;;;1.20;0.52;;;10.60;99.90;;;;;;6221781;23;20001;-80
2023/02/04 03:00:23;;;;;;;0.88;0.40;;;10.60;99.90;;;;;;6220150;23;20342;-80
2023/02/04 03:03:07;;;;;;;1.27;0.40;;;10.60;99.90;;;;;;6219692;23;20346;-80
2023/02/04 03:05:37;;;;;;;0.75;0.40;;;10.60;99.90;;;;;;6220416;23;20004;-80
2023/02/04 03:08:04;;;;;;;1.17;0.40;;;10.60;99.90;;;;;;6220000;23;20008;-80
2023/02/04 03:10:30;;;;;;;0.35;0.30;;;10.70;99.90;;;;;;6221355;23;20025;-80
2023/02/04 03:12:55;;;;;;;0.60;0.30;;;10.60;99.90;;;;;;6219862;23;20001;-80
2023/02/04 03:15:21;;;;;;;0.90;0.30;;;10.60;99.90;;;;;;6220002;23;20050;-80
2023/02/04 03:17:47;;;;;;;1.20;0.47;;;10.60;99.90;;;;;;6221522;23;20001;-80
2023/02/04 03:20:14;;;;;;;1.05;0.50;;;10.60;99.90;;;;;;6219871;23;20005;-80
2023/02/04 03:22:40;;;;;;;0.55;0.40;;;10.60;99.90;;;;;;6221175;23;20001;-80
2023/02/04 03:25:06;;;;;;;0.60;0.40;;;10.60;99.90;;;;;;6221015;23;20027;-80
2023/02/04 03:27:31;;;;;;;1.08;0.40;;;10.60;99.90;;;;;;6221475;23;20000;-80
2023/02/04 03:29:58;;;;;;;1.45;0.40;;;10.70;99.90;;;;;;6221192;23;20003;-80
2023/02/04 03:32:23;;;;;;;0.60;0.32;;;10.70;99.90;;;;;;6221337;23;20001;-80
2023/02/04 03:34:49;;;;;;;0.60;0.22;;;10.70;99.90;;;;;;6221395;23;20004;-78
2023/02/04 03:37:15;;;;;;;1.48;0.60;;;10.60;99.90;;;;;;6221426;23;20438;-80
2023/02/04 03:39:41;;;;;;;0.82;0.40;;;10.50;99.90;;;;;;6221054;23;20004;-80
2023/02/04 03:42:06;;;;;;;0.90;0.50;;;10.60;99.90;;;;;;6221416;23;20425;-81
2023/02/04 03:44:32;;;;;;;0.85;0.40;;;10.60;99.90;;;;;;6220035;23;20040;-80
2023/02/04 03:46:58;;;;;;;1.95;0.40;;;10.60;99.90;;;;;;6221128;23;20012;-80
2023/02/04 03:49:24;;;;;;;0.52;0.40;;;10.60;99.90;;;;;;6220105;23;20009;-80
2023/02/04 03:51:50;;;;;;;0.77;0.30;;;10.60;99.90;;;;;;6221267;23;20438;-80
2023/02/04 03:54:16;;;;;;;1.45;0.40;;;10.70;99.90;;;;;;6220033;23;20422;-80
2023/02/04 03:56:41;;;;;;;0.38;0.30;;;10.60;99.90;;;;;;6220941;23;20005;-81
2023/02/04 03:59:07;;;;;;;0.88;0.40;;;10.60;99.90;;;;;;6221244;23;20054;-81
2023/02/04 04:01:33;;;;;;;0.60;0.40;;;10.60;99.90;;;;;;6221009;23;19996;-80
2023/02/04 04:03:58;;;;;;;1.35;0.30;;;10.60;99.90;;;;;;6221285;23;20028;-81
2023/02/04 04:06:24;;;;;;;1.63;0.55;;;10.60;99.90;;;;;;6220999;23;20000;-81
2023/02/04 04:08:50;;;;;;;0.47;0.32;;;10.60;99.90;;;;;;6220973;23;20000;-81
2023/02/04 04:11:15;;;;;;;1.88;0.40;;;10.60;99.90;;;;;;6219132;23;20008;-81
2023/02/04 04:13:41;;;;;;;1.70;0.60;;;10.50;99.90;;;;;;6221160;23;20005;-80
2023/02/04 04:16:07;;;;;;;0.52;0.28;;;10.50;99.90;;;;;;6219664;23;20001;-81
2023/02/04 04:18:34;;;;;;;0.30;0.30;;;10.60;99.90;;;;;;6219638;23;20005;-81
2023/02/04 04:21:00;;;;;;;0.40;0.30;;;10.60;99.90;;;;;;6220896;23;19997;-81
2023/02/04 04:23:25;;;;;;;0.93;0.30;;;10.60;99.90;;;;;;6219572;23;20092;-80
2023/02/04 04:25:51;;;;;;;1.17;0.45;;;10.60;99.90;;;;;;6218778;23;20008;-81
2023/02/04 04:28:17;;;;;;;0.38;0.30;;;10.60;99.90;;;;;;6221090;23;20000;-81
2023/02/04 04:30:43;;;;;;;0.68;0.40;;;10.50;99.90;;;;;;6220487;23;20442;-81
2023/02/04 04:33:08;;;;;;;0.80;0.43;;;10.60;99.90;;;;;;6219138;23;20000;-80
2023/02/04 04:35:34;;;;;;;0.60;0.50;;;10.60;99.90;;;;;;6218365;23;20001;-81
2023/02/04 04:38:01;;;;;;;0.80;0.50;;;10.60;99.90;;;;;;6220893;23;20008;-80
2023/02/04 04:40:26;;;;;;;0.70;0.40;;;10.60;99.90;;;;;;6221022;23;19997;-81
2023/02/04 04:42:52;;;;;;;0.32;0.30;;;10.50;99.90;;;;;;6220774;23;20055;-81
2023/02/04 04:45:18;;;;;;;1.90;0.57;;;10.50;99.90;;;;;;6219543;23;20009;-81
2023/02/04 04:47:44;;;;;;;1.15;0.50;;;10.50;99.90;;;;;;6220574;23;20330;-81
2023/02/04 04:50:10;;;;;;;0.50;0.40;;;10.50;99.90;;;;;;6220795;23;20004;-81
2023/02/04 04:52:36;;;;;;;0.90;0.40;;;10.40;99.90;;;;;;6220720;23;20005;-81
2023/02/04 04:55:03;;;;;;;0.60;0.50;;;10.40;99.90;;;;;;6220472;23;20007;-81
2023/02/04 04:57:28;;;;;;;0.90;0.32;;;10.40;99.90;;;;;;6219114;23;20399;-81
2023/02/04 04:59:54;;;;;;;0.82;0.50;;;10.40;99.90;;;;;;6220952;23;20027;-81
2023/02/04 05:02:20;;;;;;;0.90;0.40;;;10.40;99.90;;;;;;6220485;23;20015;-80
2023/02/04 05:04:45;;;;;;;0.50;0.40;;;10.40;99.90;;;;;;6220590;23;20430;-79
2023/02/04 05:07:11;;;;;;;0.80;0.40;;;10.40;99.90;;;;;;6220475;23;20005;-80
2023/02/04 05:09:36;;;;;;;1.05;0.60;;;10.40;99.90;;;;;;6220318;23;20058;-79
2023/02/04 05:12:02;;;;;;;1.08;0.40;;;10.40;99.90;;;;;;6219354;23;20011;-79
2023/02/04 05:14:28;;;;;;;1.35;0.47;;;10.40;99.90;;;;;;6221002;23;19997;-80
2023/02/04 05:16:54;;;;;;;1.02;0.50;;;10.40;99.90;;;;;;6219180;23;20342;-80
2023/02/04 05:19:19;;;;;;;0.55;0.32;;;10.50;99.90;;;;;;6220570;23;20011;-80
2023/02/04 05:21:45;;;;;;;1.42;0.60;;;10.50;99.90;;;;;;6220740;23;20009;-80
2023/02/04 05:24:11;;;;;;;0.85;0.60;;;10.50;99.90;;;;;;6220430;23;20000;-80
2023/02/04 05:26:36;;;;;;;0.70;0.40;;;10.50;99.90;;;;;;6218964;23;20011;-80
2023/02/04 05:29:02;;;;;;;1.23;0.60;;;10.40;99.90;;;;;;6220768;23;20001;-80
2023/02/04 05:31:28;;;;;;;1.05;0.50;;;10.40;99.90;;;;;;6218961;23;20017;-80
2023/02/04 05:33:54;;;;;;;0.98;0.60;;;10.40;99.90;;;;;;6218693;23;20430;-80
2023/02/04 05:36:20;;;;;;;0.60;0.50;;;10.40;99.90;;;;;;6219029;23;20068;-80
2023/02/04 05:38:46;;;;;;;0.98;0.47;;;10.40;99.90;;;;;;6220404;23;20028;-80
2023/02/04 05:41:11;;;;;;;0.50;0.45;;;10.40;99.90;;;;;;6218821;23;20004;-80
2023/02/04 05:43:37;;;;;;;1.10;0.55;;;10.40;99.90;;;;;;6220344;23;20001;-80
2023/02/04 05:46:03;;;;;;;0.57;0.50;;;10.40;99.90;;;;;;6220091;23;20092;-81
2023/02/04 05:48:29;;;;;;;0.68;0.52;;;10.40;99.90;;;;;;6220874;23;20005;-80
2023/02/04 05:50:54;;;;;;;0.77;0.50;;;10.50;99.90;;;;;;6222496;23;19996;-80
2023/02/04 05:53:20;;;;;;;1.08;0.70;;;10.40;99.90;;;;;;6222422;23;20011;-80
2023/02/04 05:55:46;;;;;;;1.83;0.57;;;10.30;99.90;;;;;;6222178;23;19997;-80
2023/02/04 05:58:11;;;;;;;1.42;0.68;;;10.30;99.90;;;;;;6222578;23;20001;-80
2023/02/04 06:00:37;;;;;;;1.48;0.60;;;10.30;99.90;;;;;;6222960;23;20004;-80
2023/02/04 06:03:03;;;;;;;1.63;0.60;;;10.30;99.90;;;;;;6222191;23;20000;-80
2023/02/04 06:05:28;;;;;;;1.83;0.60;;;10.20;99.90;;;;;;6220510;23;20500;-80
2023/02/04 06:07:54;;;;;;;0.93;0.50;;;10.20;99.90;;;;;;6220260;23;20426;-80
2023/02/04 06:10:20;;;;;;;0.70;0.52;;;10.20;99.90;;;;;;6221693;23;20008;-80
2023/02/04 06:12:46;;;;;;;1.13;0.60;;;10.20;99.90;;;;;;6222288;23;20310;-80
2023/02/04 06:15:12;;;;;;;0.70;0.60;;;10.20;99.90;;;;;;6222244;23;20076;-80
2023/02/04 06:17:38;;;;;;;0.88;0.60;;;10.20;99.90;;;;;;6222059;23;20000;-80
2023/02/04 06:20:04;;;;;;;1.60;0.80;;;10.20;99.90;;;;;;6222182;23;20495;-80
2023/02/04 06:22:30;;;;;;;1.02;0.70;;;10.20;99.90;;;;;;6222014;23;20513;-80
2023/02/04 06:24:56;;;;;;;0.88;0.55;;;10.20;99.90;;;;;;6221875;23;20000;-81
2023/02/04 06:27:24;;;;;;;1.85;0.63;;;10.20;99.90;;;;;;6221943;23;20012;-80
2023/02/04 06:29:53;;;;;;;0.95;0.60;;;10.20;99.90;;;;;;6220357;23;20015;-80
2023/02/04 06:32:20;;;;;;;0.73;0.47;;;10.20;99.90;;;;;;6221941;23;20004;-80
2023/02/04 06:34:45;;;;;;;1.00;0.63;;;10.20;99.90;;;;;;6219846;23;20069;-80
2023/02/04 06:37:11;;;;;;;0.55;0.40;;;10.20;99.90;;;;;;6221437;23;20330;-80
2023/02/04 06:39:37;;;;;;;1.30;0.60;;;10.30;99.90;;;;;;6219742;23;20350;-80
2023/02/04 06:42:03;;;;;;;1.50;0.60;;;10.20;99.90;;;;;;6219887;23;20016;-80
2023/02/04 06:44:29;;;;;;;0.80;0.50;;;10.20;99.90;;;;;;6221681;23;20005;-80
2023/02/04 06:46:55;;;;;;;1.20;0.80;;;10.30;99.90;;;;;;6221647;23;20054;-80
2023/02/04 06:49:20;;;;;;;1.38;0.50;;;10.20;99.90;;;;;;6220025;23;20036;-81
2023/02/04 06:51:47;;;;;;;1.15;0.50;;;10.20;99.90;;;;;;6220310;23;20011;-81
2023/02/04 06:54:13;;;;;;;1.58;0.60;;;10.20;99.90;;;;;;6219983;23;20004;-81
2023/02/04 06:56:39;;;;;;;2.88;0.70;;;10.20;99.90;;;;;;6220919;23;20031;-81
2023/02/04 06:59:04;;;;;;;1.17;0.68;;;10.20;99.90;;;;;;6220504;23;20063;-81
2023/02/04 07:01:30;;;;;;;1.98;0.90;;;10.20;99.90;;;;;;6219436;23;20005;-81
2023/02/04 07:03:56;;;;;;;1.85;0.70;;;10.20;99.90;;;;;;6221085;23;20407;-81
2023/02/04 07:06:22;;;;;;;0.75;0.57;;;10.10;99.90;;;;;;6219857;23;20005;-82
2023/02/04 07:08:48;;;;;;;0.80;0.63;;;10.10;99.90;;;;;;6219924;23;20000;-83
2023/02/04 07:11:14;;;;;;;1.27;0.80;;;10.10;99.90;;;;;;6219483;23;20005;-83
2023/02/04 07:13:40;;;;;;;1.95;0.73;;;10.00;99.90;;;;;;6221235;23;20009;-84
2023/02/04 07:16:06;;;;;;;1.38;0.80;;;10.00;99.90;;;;;;6220413;23;20000;-84
2023/02/04 07:18:32;;;;;;;0.80;0.60;;;10.10;99.90;;;;;;6220934;23;20414;-84
2023/02/04 07:20:58;;;;;;;1.00;0.73;;;10.10;99.90;;;;;;6221692;23;20011;-85
2023/02/04 07:23:24;;;;;;;1.35;0.80;;;10.00;99.90;;;;;;6221725;23;20001;-85
2023/02/04 07:25:52;;;;;;;1.23;0.80;;;10.00;99.90;;;;;;6219706;23;20029;-85
2023/02/04 07:28:19;;;;;;;0.90;0.70;;;10.00;99.90;;;;;;6219688;23;20011;-86
2023/02/04 07:30:45;;;;;;;1.23;0.65;;;10.00;99.90;;;;;;6219877;23;20477;-85
2023/02/04 07:33:10;;;;;;;0.95;0.70;;;10.00;99.90;;;;;;6219818;23;20088;-85
2023/02/04 07:35:39;;;;;;;1.70;0.80;;;10.00;99.90;;;;;;6221529;23;20004;-85
2023/02/04 07:38:05;;;;;;;1.98;0.88;;;10.00;99.90;;;;;;6221390;23;20326;-84
2023/02/04 07:40:31;;;;;;;1.55;0.90;;;10.00;99.90;;;;;;6219062;23;20012;-85
2023/02/04 07:42:56;;;;;;;1.05;0.82;;;10.00;99.90;;;;;;6220966;23;20059;-86
2023/02/04 07:45:22;;;;;;;1.30;1.00;;;10.10;99.90;;;;;;6221338;23;20032;-85
2023/02/04 07:47:48;;;;;;;1.60;0.90;;;10.10;99.90;;;;;;6218581;23;20005;-85
2023/02/04 07:50:14;;;;;;;1.20;0.82;;;10.10;99.90;;;;;;6219927;23;20377;-84
2023/02/04 07:52:41;;;;;;;2.45;1.00;;;10.10;99.90;;;;;;6218898;23;20011;-84
2023/02/04 07:55:07;;;;;;;1.48;0.85;;;10.10;99.90;;;;;;6220981;23;20004;-85
2023/02/04 07:57:33;;;;;;;1.15;0.82;;;10.10;99.90;;;;;;6219688;23;20039;-87
2023/02/04 07:59:59;;;;;;;1.23;0.82;;;10.10;99.90;;;;;;6219553;23;20004;-85
2023/02/04 08:02:24;;;;;;;2.35;0.98;;;10.10;99.90;;;;;;6218889;23;20005;-85
2023/02/04 08:04:50;;;;;;;1.85;1.00;;;10.10;99.90;;;;;;6218533;23;20016;-85
2023/02/04 08:07:16;;;;;;;1.40;1.00;;;10.10;99.90;;;;;;6218493;23;20346;-85
2023/02/04 08:09:41;;;;;;;3.35;1.40;;;10.10;99.90;;;;;;6218496;23;20005;-85
2023/02/04 08:12:07;;;;;;;1.17;0.98;;;10.10;99.90;;;;;;6218809;23;20453;-85
2023/02/04 08:14:33;;;;;;;1.52;1.00;;;10.10;99.90;;;;;;6218873;23;20004;-88
2023/02/04 08:16:58;;;;;;;2.10;1.27;;;10.10;99.90;;;;;;6222752;23;20505;-89
2023/02/04 08:19:24;;;;;;;4.28;1.23;;;10.10;99.90;;;;;;6230927;23;20004;-89
2023/02/04 08:21:50;;;;;;;1.15;0.98;;;10.10;99.90;;;;;;6237496;23;19997;-91
2023/02/04 08:24:16;;;;;;;1.48;1.10;;;10.10;99.90;;;;;;6234296;23;20009;-88
2023/02/04 08:26:43;;;;;;;1.27;1.13;;;10.10;99.90;;;;;;6224977;23;20015;-89
2023/02/04 08:29:09;;;;;;;2.35;1.52;;;10.10;99.90;;;;;;6220071;23;20005;-89
2023/02/04 08:31:36;;;;;;;2.03;1.30;;;10.10;99.90;;;;;;6218766;23;20354;-91
2023/02/04 08:34:02;;;;;;;1.70;1.30;;;10.20;99.90;;;;;;6220199;23;20055;-89
2023/02/04 08:36:28;;;;;;;1.75;1.23;;;10.20;99.90;;;;;;6220053;23;20004;-87
2023/02/04 08:38:54;;;;;;;3.10;1.33;;;10.20;99.90;;;;;;6219291;23;20031;-85
2023/02/04 08:41:19;;;;;;;2.28;1.27;;;10.20;99.90;;;;;;6217719;23;20087;-84
2023/02/04 08:43:45;;;;;;;2.85;1.35;;;10.20;99.90;;;;;;6219990;23;20059;-84
2023/02/04 08:46:11;;;;;;;1.80;1.40;;;10.30;99.90;;;;;;6218885;23;20035;-85
2023/02/04 08:48:36;;;;;;;2.40;1.70;;;10.20;99.90;;;;;;6219265;23;20000;-84
2023/02/04 08:51:02;;;;;;;1.88;1.30;;;10.20;99.90;;;;;;6220756;23;20051;-84
2023/02/04 08:53:28;;;;;;;1.65;1.42;;;10.20;99.90;;;;;;6219801;23;20001;-84
2023/02/04 08:55:54;;;;;;;1.67;1.23;;;10.20;99.90;;;;;;6219431;23;20004;-85
2023/02/04 08:58:19;;;;;;;1.45;1.27;;;10.20;99.90;;;;;;6218368;23;20032;-85
2023/02/04 09:00:45;;;;;;;1.73;1.30;;;10.20;99.90;;;;;;6217977;23;20005;-84
2023/02/04 09:03:11;;;;;;;1.63;1.40;;;10.20;99.90;;;;;;6217972;23;20058;-85
2023/02/04 09:05:37;;;;;;;1.70;1.30;;;10.30;99.90;;;;;;6218284;23;20058;-84
2023/02/04 09:08:02;;;;;;;2.10;1.40;;;10.40;99.90;;;;;;6219319;23;20005;-85
2023/02/04 09:10:28;;;;;;;2.05;1.50;;;10.30;99.90;;;;;;6219111;23;20001;-85
2023/02/04 09:12:54;;;;;;;2.63;1.23;;;10.30;99.90;;;;;;6219489;23;19996;-84
2023/02/04 09:15:24;;;;;;;2.20;1.30;;;10.30;99.90;;;;;;6218753;23;20055;-84
2023/02/04 09:17:52;;;;;;;1.85;1.35;;;10.30;99.90;;;;;;6219626;23;20008;-84
2023/02/04 09:20:20;;;;;;;2.33;1.10;;;10.30;99.90;;;;;;6218907;23;20010;-84
2023/02/04 09:22:47;;;;;;;2.05;1.23;;;10.40;99.90;;;;;;6219540;23;20031;-84
2023/02/04 09:25:12;;;;;;;1.83;1.05;;;10.30;99.90;;;;;;6218651;23;20011;-83
2023/02/04 09:27:38;;;;;;;2.35;1.35;;;10.30;99.90;;;;;;6218584;23;20013;-84
2023/02/04 09:30:04;;;;;;;1.98;1.38;;;10.30;99.90;;;;;;6220042;23;19997;-84
2023/02/04 09:32:30;;;;;;;2.10;1.40;;;10.30;99.90;;;;;;6218998;23;20008;-84
2023/02/04 09:34:59;;;;;;;1.75;1.48;;;10.40;99.90;;;;;;6217929;23;20091;-84
2023/02/04 09:37:25;;;;;;;2.72;1.45;;;10.50;99.90;;;;;;6216385;23;20057;-84
2023/02/04 09:39:51;;;;;;;2.33;1.45;;;10.50;99.90;;;;;;6218555;23;20382;-84
2023/02/04 09:42:18;;;;;;;1.55;1.30;;;10.50;99.90;;;;;;6218645;23;20116;-85
2023/02/04 09:44:44;;;;;;;1.63;1.30;;;10.50;99.90;;;;;;6220288;23;20000;-86
2023/02/04 09:47:21;;;;;;;2.05;1.30;;;10.60;99.90;;;;;;6220072;23;20031;-85
2023/02/04 09:49:49;;;;;;;1.83;1.23;;;10.60;99.90;;;;;;6219014;23;20453;-85
2023/02/04 09:52:18;;;;;;;1.52;1.08;;;10.60;99.90;;;;;;6218209;23;20334;-86
2023/02/04 09:54:44;;;;;;;1.77;1.33;;;10.60;99.90;;;;;;6217972;23;20000;-86
2023/02/04 09:57:16;;;;;;;3.63;1.30;;;10.70;99.90;;;;;;6217876;23;20009;-86
2023/02/04 09:59:43;;;;;;;2.33;1.40;;;10.70;99.90;;;;;;6217943;23;20009;-85
2023/02/04 10:02:24;;;;;;;1.92;1.33;;;10.70;99.90;;;;;;6219797;23;20433;-85
2023/02/04 10:04:56;;;;;;;3.30;1.70;;;10.70;99.90;;;;;;6220093;23;20005;-85
2023/02/04 10:07:24;;;;;;;2.78;1.77;;;10.60;99.90;;;;;;6218370;23;20016;-85
2023/02/04 10:09:51;;;;;;;2.78;1.73;;;10.60;99.90;;;;;;6219854;23;19996;-84
2023/02/04 10:12:18;;;;;;;3.08;1.70;;;10.60;99.90;;;;;;6218690;23;20001;-84
2023/02/04 10:14:44;;;;;;;2.13;1.58;;;10.60;99.90;;;;;;6217956;23;20007;-85
2023/02/04 10:17:11;;;;;;;2.30;1.50;;;10.60;99.90;;;;;;6220447;23;20011;-86
2023/02/04 10:19:36;;;;;;;1.92;1.50;;;10.60;99.90;;;;;;6219199;23;20015;-88
2023/02/04 10:22:09;;;;;;;2.17;1.45;;;10.70;99.90;;;;;;6220834;23;20036;-83
2023/02/04 10:24:36;;;;;;;2.08;1.13;;;10.70;99.90;;;;;;6218997;23;20015;-87
2023/02/04 10:27:10;;;;;;;1.85;1.38;;;10.80;99.90;;;;;;6218526;23;20456;-88
2023/02/04 10:29:36;;;;;;;1.95;1.05;;;10.80;99.90;;;;;;6219402;23;20005;-87
2023/02/04 10:32:02;;;;;;;2.10;1.58;;;10.80;99.90;;;;;;6219191;23;20021;-88
2023/02/04 10:34:38;;;;;;;2.20;1.20;;;10.90;99.90;;;;;;6220748;23;20529;-88
2023/02/04 10:37:21;;;;;;;2.40;1.25;;;10.90;99.90;;;;;;6220716;23;20317;-87
2023/02/04 10:39:48;;;;;;;1.77;1.27;;;10.90;99.90;;;;;;6220788;23;20059;-87
2023/02/04 10:42:25;;;;;;;1.75;1.48;;;10.90;99.90;;;;;;6221106;23;20012;-89
2023/02/04 10:44:51;;;;;;;1.83;1.40;;;10.90;99.90;;;;;;6220913;23;20008;-87
2023/02/04 10:47:20;;;;;;;1.67;1.15;;;10.80;99.90;;;;;;6222056;23;20004;-88
2023/02/04 10:50:05;;;;;;;1.88;1.40;;;10.80;99.90;;;;;;6221074;23;20426;-87
2023/02/04 10:52:44;;;;;;;1.98;1.38;;;10.80;99.90;;;;;;6220724;23;20005;-86
2023/02/04 10:55:16;;;;;;;1.92;1.23;;;10.80;99.90;;;;;;6219117;23;20091;-88
2023/02/04 10:57:45;;;;;;;2.83;1.75;;;10.70;99.90;;;;;;6220747;23;20504;-87
2023/02/04 11:00:23;;;;;;;3.22;1.33;;;10.70;99.90;;;;;;6219710;23;20012;-88
2023/02/04 11:03:08;;;;;;;2.40;1.15;;;10.70;99.90;;;;;;6220446;23;20058;-87
2023/02/04 11:05:35;;;;;;;2.63;1.55;;;10.60;99.90;;;;;;6220020;23;20009;-88
2023/02/04 11:08:21;;;;;;;2.28;1.42;;;10.60;99.90;;;;;;6220998;23;20469;-88
2023/02/04 11:10:50;;;;;;;2.05;1.30;;;10.60;99.90;;;;;;6220660;23;20004;-87
2023/02/04 11:13:38;;;;;;;1.65;1.20;;;10.60;99.90;;;;;;6220735;23;20005;-87
2023/02/04 11:16:21;;;;;;;1.70;1.25;;;10.70;99.90;;;;;;6220844;23;20017;-88
2023/02/04 11:18:51;;;;;;;1.20;0.90;;;10.70;99.90;;;;;;6220924;23;20001;-88
2023/02/04 11:21:28;;;;;;;2.00;1.40;;;10.70;99.90;;;;;;6222212;23;19996;-87
2023/02/04 11:24:12;;;;;;;3.58;2.00;;;10.70;99.90;;;;;;6223285;23;20004;-86
2023/02/04 11:26:43;;;;;;;2.17;1.60;;;10.70;99.90;;;;;;6220316;23;20008;-87
2023/02/04 11:29:25;;;;;;;4.97;1.27;;;10.80;99.90;;;;;;6219303;23;20438;-87
2023/02/04 11:31:51;;;;;;;2.47;1.67;;;10.80;99.90;;;;;;6220165;23;20028;-87
2023/02/04 11:34:20;;;;;;;2.60;1.40;;;10.90;99.90;;;;;;6220721;23;20055;-88
2023/02/04 11:37:01;;;;;;;2.10;1.35;;;10.90;99.90;;;;;;6222219;23;20330;-87
2023/02/04 11:39:40;;;;;;;2.15;1.38;;;10.80;99.90;;;;;;6220591;23;20338;-89
2023/02/04 11:42:19;;;;;;;3.63;1.52;;;10.90;99.90;;;;;;6220438;23;20028;-88
2023/02/04 11:44:51;;;;;;;3.10;1.45;;;10.90;99.90;;;;;;6220707;23;20004;-88
2023/02/04 11:47:16;;;;;;;3.25;1.20;;;10.90;99.90;;;;;;6220282;23;20008;-88
2023/02/04 11:49:44;;;;;;;2.60;1.48;;;10.90;99.90;;;;;;6220093;23;20008;-88
2023/02/04 11:52:13;;;;;;;2.22;1.38;;;10.80;99.90;;;;;;6220668;23;20080;-88
2023/02/04 11:54:39;;;;;;;4.30;1.70;;;10.80;99.90;;;;;;6220219;23;20000;-88
2023/02/04 11:57:05;;;;;;;1.75;1.33;;;10.80;99.90;;;;;;6220258;23;20342;-88
2023/02/04 11:59:31;;;;;;;2.08;1.50;;;10.80;99.90;;;;;;6222094;23;20430;-87
2023/02/04 12:02:05;;;;;;;3.15;1.70;;;10.90;99.90;;;;;;6219951;23;20014;-88
2023/02/04 12:04:31;;;;;;;1.90;1.40;;;10.90;99.90;;;;;;6220266;23;20004;-89
2023/02/04 12:07:02;;;;;;;3.17;1.58;;;10.90;99.90;;;;;;6220185;23;20091;-88
2023/02/04 12:09:30;;;;;;;2.30;1.23;;;10.90;99.90;;;;;;6211572;23;20028;-90
2023/02/04 12:11:59;;;;;;;2.88;1.45;;;10.90;99.90;;;;;;6221545;23;20008;-86
2023/02/04 12:14:37;;;;;;;2.88;1.30;;;10.90;99.90;;;;;;6219704;23;20001;-86
2023/02/04 12:17:19;;;;;;;1.83;1.00;;;10.90;99.90;;;;;;6220029;23;20469;-86
2023/02/04 12:19:45;;;;;;;1.80;1.13;;;10.90;99.90;;;;;;6222706;23;20062;-86
2023/02/04 12:22:10;;;;;;;2.33;1.38;;;10.90;99.90;;;;;;6222044;23;20009;-87
2023/02/04 12:24:36;;;;;;;1.95;1.20;;;10.90;99.90;;;;;;6220541;23;20012;-87
2023/02/04 12:27:02;;;;;;;2.90;1.42;;;10.90;99.90;;;;;;6218629;23;20756;-86
2023/02/04 12:29:27;;;;;;;3.20;1.45;;;11.00;99.90;;;;;;6221028;23;20000;-86
2023/02/04 12:31:53;;;;;;;1.77;1.35;;;10.90;99.90;;;;;;6220972;23;20017;-86
2023/02/04 12:34:20;;;;;;;3.03;1.30;;;11.00;99.90;;;;;;6221142;23;20003;-86
2023/02/04 12:36:45;;;;;;;1.70;1.30;;;10.90;99.90;;;;;;6219627;23;20004;-87
2023/02/04 12:39:11;;;;;;;2.28;1.45;;;10.90;99.90;;;;;;6221042;23;20012;-87
2023/02/04 12:41:37;;;;;;;3.55;1.45;;;11.00;99.90;;;;;;6220954;23;20051;-87
2023/02/04 12:44:03;;;;;;;2.05;1.08;;;11.00;99.90;;;;;;6219622;23;20039;-87
2023/02/04 12:46:29;;;;;;;1.63;1.15;;;11.00;99.90;;;;;;6217471;23;20009;-86
2023/02/04 12:48:57;;;;;;;3.28;1.80;;;11.00;99.90;;;;;;6220777;23;20074;-87